Time,TemperatureF,DewpointF,PressureIn,WindDirection,WindDirectionDegrees,WindSpeedMPH,WindSpeedGustMPH,Humidity,HourlyPrecipIn,Conditions,Clouds,dailyrainin,SolarRadiationWatts/m^2,SoftwareType,DateUTC
2013-07-08 00:04:00,60.9,27.6,29.73,WNW,297,4.0,6.0,28,0.00,,,0.00,0,WeatherCatV1.15B25,2013-07-08 07:04:00,
2013-07-08 00:09:00,60.9,27.6,29.73,WNW,302,2.0,7.0,28,0.00,,,0.00,0,WeatherCatV1.15B25,2013-07-08 07:09:00,
2013-07-08 00:14:00,61.0,27.7,29.73,WNW,288,5.0,7.0,28,0.00,,,0.00,0,WeatherCatV1.15B25,2013-07-08 07:14:00,
2013-07-08 00:19:00,61.2,27.8,29.73,WNW,301,6.0,9.0,28,0.00,,,0.00,0,WeatherCatV1.15B25,2013-07-08 07:19:00,
2013-07-08 00:24:00,61.2,27.8,29.73,West,279,3.0,9.0,28,0.00,,,0.00,0,WeatherCatV1.15B25,2013-07-08 07:24:00,
2013-07-08 00:29:00,61.2,27.8,29.72,West,279,5.0,7.0,28,0.00,,,0.00,0,WeatherCatV1.15B25,2013-07-08 07:29:00,
2013-07-08 00:34:00,61.2,27.8,29.72,WNW,298,2.0,6.0,28,0.00,,,0.00,0,WeatherCatV1.15B25,2013-07-08 07:34:00,
2013-07-08 00:39:00,61.0,27.7,29.72,WNW,283,4.0,5.0,28,0.00,,,0.00,0,WeatherCatV1.15B25,2013-07-08 07:39:00,
2013-07-08 00:44:00,61.0,27.7,29.72,WNW,283,2.0,4.0,28,0.00,,,0.00,0,WeatherCatV1.15B25,2013-07-08 07:44:00,
2013-07-08 00:49:00,60.9,27.6,29.72,WNW,301,2.0,3.0,28,0.00,,,0.00,0,WeatherCatV1.15B25,2013-07-08 07:49:00,
2013-07-08 00:54:00,60.7,27.4,29.72,WNW,293,0.0,4.0,28,0.00,,,0.00,0,WeatherCatV1.15B25,2013-07-08 07:54:00,
2013-07-08 00:59:00,60.7,26.5,29.72,WNW,293,0.0,4.0,27,0.00,,,0.00,0,WeatherCatV1.15B25,2013-07-08 07:59:00,
2013-07-08 01:04:00,60.7,27.4,29.72,WNW,293,0.0,4.0,28,0.00,,,0.00,0,WeatherCatV1.15B25,2013-07-08 08:04:00,
2013-07-08 01:09:00,60.7,27.4,29.72,NW,320,0.0,4.0,28,0.00,,,0.00,0,WeatherCatV1.15B25,2013-07-08 08:09:00,
2013-07-08 01:14:00,60.7,27.4,29.72,NW,305,4.0,5.0,28,0.00,,,0.00,0,WeatherCatV1.15B25,2013-07-08 08:14:00,
2013-07-08 01:19:00,60.7,27.4,29.72,WNW,288,4.0,5.0,28,0.00,,,0.00,0,WeatherCatV1.15B25,2013-07-08 08:19:00,
2013-07-08 01:24:00,60.9,27.6,29.72,WNW,297,2.0,4.0,28,0.00,,,0.00,0,WeatherCatV1.15B25,2013-07-08 08:24:00,
2013-07-08 01:29:00,60.9,27.6,29.72,NW,308,0.0,1.0,28,0.00,,,0.00,0,WeatherCatV1.15B25,2013-07-08 08:29:00,
2013-07-08 01:34:00,60.9,27.6,29.72,NW,304,0.0,1.0,28,0.00,,,0.00,0,WeatherCatV1.15B25,2013-07-08 08:34:00,
2013-07-08 01:39:00,60.7,27.4,29.72,NW,314,0.0,3.0,28,0.00,,,0.00,0,WeatherCatV1.15B25,2013-07-08 08:39:00,
2013-07-08 01:44:00,60.5,27.2,29.72,NW,322,3.0,6.0,28,0.00,,,0.00,0,WeatherCatV1.15B25,2013-07-08 08:44:00,
2013-07-08 01:46:00,60.5,27.2,29.72,NW,322,0.0,1.0,28,0.00,,,0.00,0,WeatherCatV1.15B25,2013-07-08 08:46:00,
2013-07-08 01:51:00,60.2,26.1,29.72,NW,322,2.0,6.0,27,0.00,,,0.00,0,WeatherCatV1.15B25,2013-07-08 08:51:00,
2013-07-08 01:56:00,60.2,27.0,29.72,NNW,334,0.0,5.0,28,0.00,,,0.00,0,WeatherCatV1.15B25,2013-07-08 08:56:00,
2013-07-08 02:01:00,60.1,26.9,29.74,NNW,336,0.0,3.0,28,0.00,,,0.00,0,WeatherCatV1.15B25,2013-07-08 09:01:00,
2013-07-08 02:06:00,60.1,26.9,29.74,NNW,336,0.0,4.0,28,0.00,,,0.00,0,WeatherCatV1.15B25,2013-07-08 09:06:00,
2013-07-08 02:11:00,60.4,27.1,29.74,NNW,343,2.0,6.0,28,0.00,,,0.00,0,WeatherCatV1.15B25,2013-07-08 09:11:00,
2013-07-08 02:16:00,60.5,26.4,29.73,NNW,335,2.0,6.0,27,0.00,,,0.00,0,WeatherCatV1.15B25,2013-07-08 09:16:00,
2013-07-08 02:21:00,60.5,25.4,29.73,NNW,339,3.0,4.0,26,0.00,,,0.00,0,WeatherCatV1.15B25,2013-07-08 09:21:00,
2013-07-08 02:26:00,60.7,25.6,29.73,NNW,347,3.0,6.0,26,0.00,,,0.00,0,WeatherCatV1.15B25,2013-07-08 09:26:00,
2013-07-08 02:31:00,60.9,25.8,29.73,North,351,7.0,7.0,26,0.00,,,0.00,0,WeatherCatV1.15B25,2013-07-08 09:31:00,
2013-07-08 02:36:00,61.0,25.9,29.73,NNW,337,0.0,3.0,26,0.00,,,0.00,0,WeatherCatV1.15B25,2013-07-08 09:36:00,
2013-07-08 02:41:00,60.9,25.8,29.73,NNW,337,0.0,0.0,26,0.00,,,0.00,0,WeatherCatV1.15B25,2013-07-08 09:41:00,
2013-07-08 02:46:00,60.9,24.8,29.73,NNW,337,0.0,1.0,25,0.00,,,0.00,0,WeatherCatV1.15B25,2013-07-08 09:46:00,
2013-07-08 02:51:00,60.7,25.6,29.73,NNW,337,0.0,2.0,26,0.00,,,0.00,0,WeatherCatV1.15B25,2013-07-08 09:51:00,
2013-07-08 02:56:00,60.7,24.7,29.73,NNW,336,0.0,3.0,25,0.00,,,0.00,0,WeatherCatV1.15B25,2013-07-08 09:56:00,
2013-07-08 03:01:00,60.9,21.8,29.73,South,183,0.0,9.0,22,0.00,,,0.00,0,WeatherCatV1.15B25,2013-07-08 10:01:00,
2013-07-08 03:06:00,61.0,21.9,29.73,SE,141,0.0,5.0,22,0.00,,,0.00,0,WeatherCatV1.15B25,2013-07-08 10:06:00,
2013-07-08 03:11:00,61.0,20.8,29.73,SSE,153,2.0,3.0,21,0.00,,,0.00,0,WeatherCatV1.15B25,2013-07-08 10:11:00,
2013-07-08 03:16:00,61.2,22.1,29.72,SSE,160,4.0,5.0,22,0.00,,,0.00,0,WeatherCatV1.15B25,2013-07-08 10:16:00,
2013-07-08 03:21:00,61.3,21.0,29.72,SSE,159,7.0,10.0,21,0.00,,,0.00,0,WeatherCatV1.15B25,2013-07-08 10:21:00,
2013-07-08 03:26:00,61.5,21.2,29.72,South,170,2.0,2.0,21,0.00,,,0.00,0,WeatherCatV1.15B25,2013-07-08 10:26:00,
2013-07-08 03:31:00,61.6,21.3,29.70,South,170,0.0,6.0,21,0.00,,,0.00,0,WeatherCatV1.15B25,2013-07-08 10:31:00,
2013-07-08 03:36:00,61.5,21.2,29.70,South,185,0.0,11.0,21,0.00,,,0.00,0,WeatherCatV1.15B25,2013-07-08 10:36:00,
2013-07-08 03:41:00,61.5,21.2,29.70,SSW,199,0.0,3.0,21,0.00,,,0.00,0,WeatherCatV1.15B25,2013-07-08 10:41:00,
2013-07-08 03:46:00,61.3,21.0,29.72,WNW,283,4.0,5.0,21,0.00,,,0.00,0,WeatherCatV1.15B25,2013-07-08 10:46:00,
2013-07-08 03:51:00,61.2,21.0,29.72,SSE,166,2.0,6.0,21,0.00,,,0.00,0,WeatherCatV1.15B25,2013-07-08 10:51:00,
2013-07-08 03:56:00,61.0,18.5,29.72,South,184,15.0,19.0,19,0.00,,,0.00,0,WeatherCatV1.15B25,2013-07-08 10:56:00,
2013-07-08 04:01:00,61.3,21.0,29.72,SSE,163,2.0,10.0,21,0.00,,,0.00,0,WeatherCatV1.15B25,2013-07-08 11:01:00,
2013-07-08 04:06:00,61.5,21.2,29.72,SSE,167,1.0,6.0,21,0.00,,,0.00,0,WeatherCatV1.15B25,2013-07-08 11:06:00,
2013-07-08 04:11:00,61.5,21.2,29.72,South,178,6.0,8.0,21,0.00,,,0.00,0,WeatherCatV1.15B25,2013-07-08 11:11:00,
2013-07-08 04:16:00,61.6,21.3,29.74,South,172,0.0,7.0,21,0.00,,,0.00,0,WeatherCatV1.15B25,2013-07-08 11:16:00,
2013-07-08 04:21:00,61.5,21.2,29.74,South,173,0.0,4.0,21,0.00,,,0.00,0,WeatherCatV1.15B25,2013-07-08 11:21:00,
2013-07-08 04:26:00,61.5,21.2,29.74,South,177,0.0,6.0,21,0.00,,,0.00,0,WeatherCatV1.15B25,2013-07-08 11:26:00,
2013-07-08 04:31:00,61.3,21.0,29.74,South,183,0.0,7.0,21,0.00,,,0.00,0,WeatherCatV1.15B25,2013-07-08 11:31:00,
2013-07-08 04:36:00,61.2,21.0,29.74,South,176,0.0,10.0,21,0.00,,,0.00,0,WeatherCatV1.15B25,2013-07-08 11:36:00,
2013-07-08 04:41:00,61.2,22.1,29.74,South,179,1.0,4.0,22,0.00,,,0.00,0,WeatherCatV1.15B25,2013-07-08 11:41:00,
2013-07-08 04:46:00,60.9,21.8,29.74,South,174,0.0,4.0,22,0.00,,,0.00,0,WeatherCatV1.15B25,2013-07-08 11:46:00,
2013-07-08 04:51:00,60.9,21.8,29.74,South,176,0.0,11.0,22,0.00,,,0.00,0,WeatherCatV1.15B25,2013-07-08 11:51:00,
2013-07-08 04:56:00,60.7,21.6,29.74,South,176,2.0,3.0,22,0.00,,,0.00,0,WeatherCatV1.15B25,2013-07-08 11:56:00,
2013-07-08 05:01:00,60.5,20.4,29.74,South,187,3.0,11.0,21,0.00,,,0.00,0,WeatherCatV1.15B25,2013-07-08 12:01:00,
2013-07-08 05:06:00,60.5,20.4,29.74,SSW,201,0.0,6.0,21,0.00,,,0.00,0,WeatherCatV1.15B25,2013-07-08 12:06:00,
2013-07-08 05:11:00,60.5,20.4,29.74,South,180,1.0,7.0,21,0.00,,,0.00,0,WeatherCatV1.15B25,2013-07-08 12:11:00,
2013-07-08 05:16:00,60.5,20.4,29.74,South,169,2.0,4.0,21,0.00,,,0.00,0,WeatherCatV1.15B25,2013-07-08 12:16:00,
2013-07-08 05:21:00,60.4,20.3,29.74,South,172,0.0,2.0,21,0.00,,,0.00,0,WeatherCatV1.15B25,2013-07-08 12:21:00,
2013-07-08 05:26:00,60.2,20.1,29.74,South,180,6.0,11.0,21,0.00,,,0.00,0,WeatherCatV1.15B25,2013-07-08 12:26:00,
2013-07-08 05:31:00,60.2,20.1,29.76,South,190,3.0,7.0,21,0.00,,,0.00,0,WeatherCatV1.15B25,2013-07-08 12:31:00,
2013-07-08 05:36:00,60.4,20.3,29.76,South,174,0.0,9.0,21,0.00,,,0.00,0,WeatherCatV1.15B25,2013-07-08 12:36:00,
2013-07-08 05:41:00,60.4,20.3,29.76,South,176,2.0,3.0,21,0.00,,,0.00,0,WeatherCatV1.15B25,2013-07-08 12:41:00,
2013-07-08 05:46:00,60.4,20.3,29.76,SSW,197,0.0,11.0,21,0.00,,,0.00,5,WeatherCatV1.15B25,2013-07-08 12:46:00,
2013-07-08 05:51:00,60.4,20.3,29.76,SSW,195,0.0,3.0,21,0.00,,,0.00,7,WeatherCatV1.15B25,2013-07-08 12:51:00,
2013-07-08 05:56:00,60.5,20.4,29.76,SE,127,4.0,15.0,21,0.00,,,0.00,11,WeatherCatV1.15B25,2013-07-08 12:56:00,
2013-07-08 06:01:00,60.7,20.5,29.74,South,183,0.0,6.0,21,0.00,,,0.00,12,WeatherCatV1.15B25,2013-07-08 13:01:00,
2013-07-08 06:06:00,60.7,20.5,29.74,South,180,1.0,5.0,21,0.00,,,0.00,14,WeatherCatV1.15B25,2013-07-08 13:06:00,
2013-07-08 06:11:00,60.9,20.7,29.74,SSW,201,1.0,13.0,21,0.00,,,0.00,18,WeatherCatV1.15B25,2013-07-08 13:11:00,
2013-07-08 06:16:00,61.0,20.8,29.77,SSE,168,1.0,6.0,21,0.00,,,0.00,18,WeatherCatV1.15B25,2013-07-08 13:16:00,
2013-07-08 06:21:00,61.2,21.0,29.77,South,188,15.0,15.0,21,0.00,,,0.00,25,WeatherCatV1.15B25,2013-07-08 13:21:00,
2013-07-08 06:26:00,61.3,21.0,29.77,South,176,10.0,10.0,21,0.00,,,0.00,51,WeatherCatV1.15B25,2013-07-08 13:26:00,
2013-07-08 06:31:00,61.5,22.3,29.76,SW,227,1.0,4.0,22,0.00,,,0.00,62,WeatherCatV1.15B25,2013-07-08 13:31:00,
2013-07-08 06:36:00,61.8,22.6,29.76,South,189,0.0,6.0,22,0.00,,,0.00,72,WeatherCatV1.15B25,2013-07-08 13:36:00,
2013-07-08 06:41:00,62.0,21.6,29.76,South,173,9.0,9.0,21,0.00,,,0.00,86,WeatherCatV1.15B25,2013-07-08 13:41:00,
2013-07-08 06:46:00,62.3,21.9,29.77,SSE,167,8.0,11.0,21,0.00,,,0.00,100,WeatherCatV1.15B25,2013-07-08 13:46:00,
2013-07-08 06:51:00,62.6,22.1,29.77,South,174,0.0,0.0,21,0.00,,,0.00,116,WeatherCatV1.15B25,2013-07-08 13:51:00,
2013-07-08 06:56:00,63.1,22.5,29.77,South,175,0.0,0.0,21,0.00,,,0.00,130,WeatherCatV1.15B25,2013-07-08 13:56:00,
2013-07-08 07:01:00,63.4,22.8,29.77,SE,133,0.0,6.0,21,0.00,,,0.00,142,WeatherCatV1.15B25,2013-07-08 14:01:00,
2013-07-08 07:06:00,63.5,24.0,29.77,SE,133,0.0,0.0,22,0.00,,,0.00,155,WeatherCatV1.15B25,2013-07-08 14:06:00,
2013-07-08 07:11:00,63.7,21.9,29.77,WSW,246,9.0,9.0,20,0.00,,,0.00,171,WeatherCatV1.15B25,2013-07-08 14:11:00,
2013-07-08 07:17:00,64.2,21.1,29.78,SSE,151,3.0,9.0,19,0.00,,,0.00,188,WeatherCatV1.15B25,2013-07-08 14:17:00,
2013-07-08 07:22:00,64.5,20.1,29.78,South,189,7.0,7.0,18,0.00,,,0.00,204,WeatherCatV1.15B25,2013-07-08 14:22:00,
2013-07-08 07:27:00,64.8,21.6,29.78,SE,138,0.0,7.0,19,0.00,,,0.00,220,WeatherCatV1.15B25,2013-07-08 14:27:00,
2013-07-08 07:32:00,65.0,21.7,29.78,South,186,0.0,13.0,19,0.00,,,0.00,236,WeatherCatV1.15B25,2013-07-08 14:32:00,
2013-07-08 07:37:00,65.3,20.7,29.78,South,174,4.0,8.0,18,0.00,,,0.00,253,WeatherCatV1.15B25,2013-07-08 14:37:00,
2013-07-08 07:42:00,65.6,22.2,29.78,East,92,0.0,6.0,19,0.00,,,0.00,269,WeatherCatV1.15B25,2013-07-08 14:42:00,
2013-07-08 07:47:00,65.8,21.1,29.77,SE,135,0.0,10.0,18,0.00,,,0.00,285,WeatherCatV1.15B25,2013-07-08 14:47:00,
2013-07-08 07:52:00,66.1,20.0,29.77,South,170,3.0,15.0,17,0.00,,,0.00,299,WeatherCatV1.15B25,2013-07-08 14:52:00,
2013-07-08 07:57:00,66.4,20.3,29.77,South,172,0.0,4.0,17,0.00,,,0.00,315,WeatherCatV1.15B25,2013-07-08 14:57:00,
2013-07-08 08:02:00,66.8,20.6,29.78,SSE,161,9.0,10.0,17,0.00,,,0.00,330,WeatherCatV1.15B25,2013-07-08 15:02:00,
2013-07-08 08:07:00,67.1,22.2,29.78,SSE,162,3.0,3.0,18,0.00,,,0.00,348,WeatherCatV1.15B25,2013-07-08 15:07:00,
2013-07-08 08:12:00,67.3,21.0,29.78,South,176,2.0,10.0,17,0.00,,,0.00,364,WeatherCatV1.15B25,2013-07-08 15:12:00,
2013-07-08 08:17:00,67.6,21.2,29.81,South,174,10.0,14.0,17,0.00,,,0.00,381,WeatherCatV1.15B25,2013-07-08 15:17:00,
2013-07-08 08:22:00,67.9,20.1,29.81,South,178,10.0,12.0,16,0.00,,,0.00,396,WeatherCatV1.15B25,2013-07-08 15:22:00,
2013-07-08 08:27:00,68.3,23.2,29.81,SW,225,0.0,3.0,18,0.00,,,0.00,410,WeatherCatV1.15B25,2013-07-08 15:27:00,
2013-07-08 08:32:00,68.6,23.4,29.81,South,176,1.0,3.0,18,0.00,,,0.00,425,WeatherCatV1.15B25,2013-07-08 15:32:00,
2013-07-08 08:37:00,68.9,24.9,29.81,SE,136,0.0,4.0,19,0.00,,,0.00,445,WeatherCatV1.15B25,2013-07-08 15:37:00,
2013-07-08 08:42:00,69.4,24.1,29.81,South,174,3.0,4.0,18,0.00,,,0.00,457,WeatherCatV1.15B25,2013-07-08 15:42:00,
2013-07-08 08:47:00,69.8,21.6,29.80,SE,125,2.0,10.0,16,0.00,,,0.00,476,WeatherCatV1.15B25,2013-07-08 15:47:00,
2013-07-08 08:52:00,70.1,23.3,29.80,South,180,1.0,12.0,17,0.00,,,0.00,494,WeatherCatV1.15B25,2013-07-08 15:52:00,
2013-07-08 08:57:00,70.1,21.8,29.80,SW,222,1.0,10.0,16,0.00,,,0.00,506,WeatherCatV1.15B25,2013-07-08 15:57:00,
2013-07-08 09:02:00,70.1,23.3,29.81,SSW,199,0.0,3.0,17,0.00,,,0.00,522,WeatherCatV1.15B25,2013-07-08 16:02:00,
2013-07-08 09:07:00,70.3,24.8,29.81,SSE,160,3.0,3.0,18,0.00,,,0.00,536,WeatherCatV1.15B25,2013-07-08 16:07:00,
2013-07-08 09:12:00,70.6,22.2,29.81,South,183,0.0,13.0,16,0.00,,,0.00,555,WeatherCatV1.15B25,2013-07-08 16:12:00,
2013-07-08 09:17:00,70.9,22.5,29.81,ESE,120,3.0,12.0,16,0.00,,,0.00,570,WeatherCatV1.15B25,2013-07-08 16:17:00,
2013-07-08 09:22:00,71.3,21.3,29.81,SE,124,1.0,16.0,15,0.00,,,0.00,584,WeatherCatV1.15B25,2013-07-08 16:22:00,
2013-07-08 09:27:00,71.6,21.5,29.81,SSE,160,0.0,6.0,15,0.00,,,0.00,599,WeatherCatV1.15B25,2013-07-08 16:27:00,
2013-07-08 09:32:00,71.8,24.6,29.81,South,172,0.0,1.0,17,0.00,,,0.00,610,WeatherCatV1.15B25,2013-07-08 16:32:00,
2013-07-08 09:37:00,72.0,23.4,29.81,SE,137,0.0,4.0,16,0.00,,,0.00,629,WeatherCatV1.15B25,2013-07-08 16:37:00,
2013-07-08 09:42:00,72.5,23.8,29.81,SSW,199,4.0,6.0,16,0.00,,,0.00,642,WeatherCatV1.15B25,2013-07-08 16:42:00,
2013-07-08 09:47:00,72.3,30.2,29.80,WNW,288,4.0,7.0,21,0.00,,,0.00,512,WeatherCatV1.15B25,2013-07-08 16:47:00,
2013-07-08 09:52:00,71.6,29.6,29.80,WNW,293,11.0,12.0,21,0.00,,,0.00,473,WeatherCatV1.15B25,2013-07-08 16:52:00,
2013-07-08 09:57:00,70.9,29.0,29.80,NW,314,7.0,11.0,21,0.00,,,0.00,682,WeatherCatV1.15B25,2013-07-08 16:57:00,
2013-07-08 10:02:00,70.3,29.7,29.81,WNW,293,10.0,13.0,22,0.00,,,0.00,694,WeatherCatV1.15B25,2013-07-08 17:02:00,
2013-07-08 10:07:00,69.9,27.0,29.81,West,272,2.0,9.0,20,0.00,,,0.00,707,WeatherCatV1.15B25,2013-07-08 17:07:00,
2013-07-08 10:13:00,69.8,30.3,29.81,West,276,5.0,10.0,23,0.00,,,0.00,548,WeatherCatV1.15B25,2013-07-08 17:13:00,
2013-07-08 10:18:00,69.6,26.8,29.81,NW,308,5.0,7.0,20,0.00,,,0.00,545,WeatherCatV1.15B25,2013-07-08 17:18:00,
2013-07-08 10:23:00,69.6,26.8,29.81,WNW,288,0.0,5.0,20,0.00,,,0.00,554,WeatherCatV1.15B25,2013-07-08 17:23:00,
2013-07-08 10:29:00,69.8,25.7,29.82,WSW,255,9.0,13.0,19,0.00,,,0.00,594,WeatherCatV1.15B25,2013-07-08 17:29:00,
2013-07-08 10:34:00,69.9,25.8,29.82,WSW,257,0.0,14.0,19,0.00,,,0.00,775,WeatherCatV1.15B25,2013-07-08 17:34:00,
2013-07-08 10:39:00,70.1,25.9,29.82,WNW,293,7.0,10.0,19,0.00,,,0.00,786,WeatherCatV1.15B25,2013-07-08 17:39:00,
2013-07-08 10:44:00,70.1,23.3,29.83,WNW,283,10.0,18.0,17,0.00,,,0.00,798,WeatherCatV1.15B25,2013-07-08 17:44:00,
2013-07-08 10:50:00,70.1,23.3,29.83,WNW,297,10.0,12.0,17,0.00,,,0.00,810,WeatherCatV1.15B25,2013-07-08 17:50:00,
2013-07-08 10:55:00,70.1,23.3,29.83,WNW,293,12.0,14.0,17,0.00,,,0.00,819,WeatherCatV1.15B25,2013-07-08 17:55:00,
2013-07-08 11:00:00,70.3,24.8,29.83,West,271,2.0,10.0,18,0.00,,,0.00,830,WeatherCatV1.15B25,2013-07-08 18:00:00,
2013-07-08 11:05:00,70.4,22.1,29.83,WNW,288,9.0,11.0,16,0.00,,,0.00,840,WeatherCatV1.15B25,2013-07-08 18:05:00,
2013-07-08 11:10:00,70.4,23.5,29.83,NW,315,7.0,16.0,17,0.00,,,0.00,851,WeatherCatV1.15B25,2013-07-08 18:10:00,
2013-07-08 11:16:00,70.6,23.7,29.83,West,275,0.0,14.0,17,0.00,,,0.00,863,WeatherCatV1.15B25,2013-07-08 18:16:00,
2013-07-08 11:23:00,72.3,23.6,29.83,West,278,7.0,12.0,16,0.00,,,0.00,877,WeatherCatV1.15B25,2013-07-08 18:23:00,
2013-07-08 11:28:00,72.8,22.5,29.83,WSW,256,4.0,16.0,15,0.00,,,0.00,886,WeatherCatV1.15B25,2013-07-08 18:28:00,
2013-07-08 11:36:00,72.5,23.8,29.81,West,261,10.0,10.0,16,0.00,,,0.00,904,WeatherCatV1.15B25,2013-07-08 18:36:00,
2013-07-08 11:41:00,72.5,23.8,29.81,West,261,0.0,9.0,16,0.00,,,0.00,907,WeatherCatV1.15B25,2013-07-08 18:41:00,
2013-07-08 11:47:00,73.3,25.9,29.81,SSW,209,2.0,10.0,17,0.00,,,0.00,914,WeatherCatV1.15B25,2013-07-08 18:47:00,
2013-07-08 11:52:00,74.7,25.5,29.81,SSW,201,1.0,3.0,16,0.00,,,0.00,932,WeatherCatV1.15B25,2013-07-08 18:52:00,
2013-07-08 11:57:00,76.0,25.0,29.81,WNW,297,9.0,10.0,15,0.00,,,0.00,932,WeatherCatV1.15B25,2013-07-08 18:57:00,
2013-07-08 12:03:00,75.4,24.5,29.80,West,260,9.0,11.0,15,0.00,,,0.00,935,WeatherCatV1.15B25,2013-07-08 19:03:00,
2013-07-08 12:09:00,74.6,23.9,29.80,WNW,283,12.0,15.0,15,0.00,,,0.00,939,WeatherCatV1.15B25,2013-07-08 19:09:00,
2013-07-08 12:14:00,73.9,24.9,29.81,West,265,7.0,9.0,16,0.00,,,0.00,944,WeatherCatV1.15B25,2013-07-08 19:14:00,
2013-07-08 12:19:00,74.6,25.4,29.81,NW,312,3.0,6.0,16,0.00,,,0.00,947,WeatherCatV1.15B25,2013-07-08 19:19:00,
2013-07-08 12:25:00,74.6,23.9,29.81,WNW,297,7.0,18.0,15,0.00,,,0.00,954,WeatherCatV1.15B25,2013-07-08 19:25:00,
2013-07-08 12:32:00,73.9,24.9,29.81,West,260,5.0,18.0,16,0.00,,,0.00,960,WeatherCatV1.15B25,2013-07-08 19:32:00,
2013-07-08 12:37:00,73.7,24.7,29.81,West,263,11.0,11.0,16,0.00,,,0.00,960,WeatherCatV1.15B25,2013-07-08 19:37:00,
2013-07-08 12:42:00,73.3,24.4,29.81,NW,310,13.0,13.0,16,0.00,,,0.00,967,WeatherCatV1.15B25,2013-07-08 19:42:00,
2013-07-08 12:48:00,73.7,24.7,29.81,SSE,152,0.0,10.0,16,0.00,,,0.00,970,WeatherCatV1.15B25,2013-07-08 19:48:00,
2013-07-08 12:54:00,74.2,21.9,29.81,NW,317,14.0,20.0,14,0.00,,,0.00,976,WeatherCatV1.15B25,2013-07-08 19:54:00,
2013-07-08 12:59:00,73.9,21.7,29.82,West,265,7.0,13.0,14,0.00,,,0.00,976,WeatherCatV1.15B25,2013-07-08 19:59:00,
2013-07-08 13:05:00,73.3,22.9,29.82,NW,305,7.0,15.0,15,0.00,,,0.00,977,WeatherCatV1.15B25,2013-07-08 20:05:00,
2013-07-08 13:10:00,73.7,23.2,29.82,WNW,300,11.0,22.0,15,0.00,,,0.00,981,WeatherCatV1.15B25,2013-07-08 20:10:00,
2013-07-08 13:15:00,73.3,24.4,29.83,NW,307,7.0,19.0,16,0.00,,,0.00,981,WeatherCatV1.15B25,2013-07-08 20:15:00,
2013-07-08 13:20:00,73.7,23.2,29.83,WNW,297,6.0,11.0,15,0.00,,,0.00,981,WeatherCatV1.15B25,2013-07-08 20:20:00,
2013-07-08 13:25:00,74.2,23.6,29.83,NW,307,10.0,13.0,15,0.00,,,0.00,981,WeatherCatV1.15B25,2013-07-08 20:25:00,
2013-07-08 13:30:00,74.9,24.1,29.81,West,269,5.0,7.0,15,0.00,,,0.00,981,WeatherCatV1.15B25,2013-07-08 20:30:00,
2013-07-08 13:36:00,76.7,23.9,29.81,WNW,283,17.0,17.0,14,0.00,,,0.00,981,WeatherCatV1.15B25,2013-07-08 20:36:00,
2013-07-08 13:41:00,76.3,21.8,29.81,NW,308,10.0,12.0,13,0.00,,,0.00,981,WeatherCatV1.15B25,2013-07-08 20:41:00,
2013-07-08 13:46:00,75.6,21.3,29.80,WSW,246,12.0,16.0,13,0.00,,,0.00,977,WeatherCatV1.15B25,2013-07-08 20:46:00,
2013-07-08 13:52:00,75.1,22.7,29.80,WNW,283,5.0,12.0,14,0.00,,,0.00,970,WeatherCatV1.15B25,2013-07-08 20:52:00,
2013-07-08 13:58:00,75.4,22.9,29.80,WSW,249,4.0,14.0,14,0.00,,,0.00,965,WeatherCatV1.15B25,2013-07-08 20:58:00,
2013-07-08 14:03:00,76.0,25.0,29.80,WNW,298,11.0,15.0,15,0.00,,,0.00,965,WeatherCatV1.15B25,2013-07-08 21:03:00,
2013-07-08 14:09:00,75.3,26.0,29.80,SW,231,2.0,9.0,16,0.00,,,0.00,962,WeatherCatV1.15B25,2013-07-08 21:09:00,
2013-07-08 14:17:00,76.1,23.4,29.80,WSW,248,4.0,17.0,14,0.00,,,0.00,954,WeatherCatV1.15B25,2013-07-08 21:17:00,
2013-07-08 14:22:00,76.1,25.1,29.80,WNW,303,10.0,15.0,15,0.00,,,0.00,946,WeatherCatV1.15B25,2013-07-08 21:22:00,
2013-07-08 14:27:00,76.0,25.0,29.80,WNW,288,4.0,5.0,15,0.00,,,0.00,947,WeatherCatV1.15B25,2013-07-08 21:27:00,
2013-07-08 14:33:00,76.1,25.1,29.81,West,263,6.0,11.0,15,0.00,,,0.00,940,WeatherCatV1.15B25,2013-07-08 21:33:00,
2013-07-08 14:39:00,77.4,20.8,29.81,West,263,6.0,12.0,12,0.00,,,0.00,933,WeatherCatV1.15B25,2013-07-08 21:39:00,
2013-07-08 14:44:00,77.6,22.9,29.79,WNW,283,3.0,13.0,13,0.00,,,0.00,932,WeatherCatV1.15B25,2013-07-08 21:44:00,
2013-07-08 14:49:00,78.1,23.3,29.79,SSE,165,15.0,15.0,13,0.00,,,0.00,912,WeatherCatV1.15B25,2013-07-08 21:49:00,
2013-07-08 14:57:00,76.7,22.2,29.79,WNW,293,9.0,16.0,13,0.00,,,0.00,907,WeatherCatV1.15B25,2013-07-08 21:57:00,
2013-07-08 15:04:00,76.1,25.1,29.79,WNW,283,4.0,11.0,15,0.00,,,0.00,893,WeatherCatV1.15B25,2013-07-08 22:04:00,
2013-07-08 15:09:00,75.4,22.9,29.79,West,272,6.0,22.0,14,0.00,,,0.00,884,WeatherCatV1.15B25,2013-07-08 22:09:00,
2013-07-08 15:14:00,74.7,27.0,29.80,WNW,303,12.0,22.0,17,0.00,,,0.00,875,WeatherCatV1.15B25,2013-07-08 22:14:00,
2013-07-08 15:19:00,74.2,26.6,29.80,WNW,293,28.0,28.0,17,0.00,,,0.00,868,WeatherCatV1.15B25,2013-07-08 22:19:00,
2013-07-08 15:25:00,73.9,26.3,29.80,West,274,12.0,22.0,17,0.00,,,0.00,853,WeatherCatV1.15B25,2013-07-08 22:25:00,
2013-07-08 15:31:00,74.0,26.4,29.81,WNW,302,19.0,19.0,17,0.00,,,0.00,840,WeatherCatV1.15B25,2013-07-08 22:31:00,
2013-07-08 15:36:00,73.9,26.3,29.81,WNW,299,11.0,21.0,17,0.00,,,0.00,830,WeatherCatV1.15B25,2013-07-08 22:36:00,
2013-07-08 15:43:00,73.9,26.3,29.81,West,261,5.0,16.0,17,0.00,,,0.00,817,WeatherCatV1.15B25,2013-07-08 22:43:00,
2013-07-08 15:49:00,74.0,26.4,29.81,NW,318,5.0,23.0,17,0.00,,,0.00,803,WeatherCatV1.15B25,2013-07-08 22:49:00,
2013-07-08 15:55:00,74.2,29.3,29.81,WNW,303,15.0,19.0,19,0.00,,,0.00,791,WeatherCatV1.15B25,2013-07-08 22:55:00,
2013-07-08 16:04:00,74.0,27.8,29.81,NW,309,12.0,17.0,18,0.00,,,0.00,772,WeatherCatV1.15B25,2013-07-08 23:04:00,
2013-07-08 16:09:00,74.4,29.4,29.81,WNW,293,15.0,21.0,19,0.00,,,0.00,758,WeatherCatV1.15B25,2013-07-08 23:09:00,
2013-07-08 16:14:00,74.0,30.4,29.81,WNW,283,16.0,17.0,20,0.00,,,0.00,747,WeatherCatV1.15B25,2013-07-08 23:14:00,
2013-07-08 16:19:00,73.9,30.3,29.81,NW,322,15.0,20.0,20,0.00,,,0.00,731,WeatherCatV1.15B25,2013-07-08 23:19:00,
2013-07-08 16:26:00,73.9,29.0,29.81,WNW,288,16.0,22.0,19,0.00,,,0.00,714,WeatherCatV1.15B25,2013-07-08 23:26:00,
2013-07-08 16:31:00,73.3,28.5,29.80,WNW,283,12.0,23.0,19,0.00,,,0.00,700,WeatherCatV1.15B25,2013-07-08 23:31:00,
2013-07-08 16:38:00,73.7,28.9,29.80,WSW,254,11.0,26.0,19,0.00,,,0.00,684,WeatherCatV1.15B25,2013-07-08 23:38:00,
2013-07-08 16:44:00,73.3,29.8,29.81,NW,314,18.0,19.0,20,0.00,,,0.00,666,WeatherCatV1.15B25,2013-07-08 23:44:00,
2013-07-08 16:49:00,73.3,29.8,29.81,West,276,18.0,22.0,20,0.00,,,0.00,649,WeatherCatV1.15B25,2013-07-08 23:49:00,
2013-07-08 16:54:00,72.8,30.6,29.81,WSW,251,6.0,23.0,21,0.00,,,0.00,633,WeatherCatV1.15B25,2013-07-08 23:54:00,
2013-07-08 17:01:00,73.2,32.1,29.81,WNW,293,11.0,17.0,22,0.00,,,0.00,613,WeatherCatV1.15B25,2013-07-09 00:01:00,
2013-07-08 17:06:00,73.0,31.9,29.81,NW,309,14.0,21.0,22,0.00,,,0.00,599,WeatherCatV1.15B25,2013-07-09 00:06:00,
2013-07-08 17:11:00,72.8,30.6,29.81,WNW,293,10.0,27.0,21,0.00,,,0.00,584,WeatherCatV1.15B25,2013-07-09 00:11:00,
2013-07-08 17:17:00,73.0,31.9,29.80,NW,307,14.0,22.0,22,0.00,,,0.00,566,WeatherCatV1.15B25,2013-07-09 00:17:00,
2013-07-08 17:22:00,72.8,32.8,29.80,NW,326,13.0,15.0,23,0.00,,,0.00,552,WeatherCatV1.15B25,2013-07-09 00:22:00,
2013-07-08 17:27:00,73.2,33.2,29.80,NW,305,13.0,23.0,23,0.00,,,0.00,533,WeatherCatV1.15B25,2013-07-09 00:27:00,
2013-07-08 17:32:00,72.7,32.8,29.80,WSW,251,17.0,20.0,23,0.00,,,0.00,522,WeatherCatV1.15B25,2013-07-09 00:32:00,
2013-07-08 17:37:00,72.1,33.3,29.80,WNW,297,13.0,24.0,24,0.00,,,0.00,506,WeatherCatV1.15B25,2013-07-09 00:37:00,
2013-07-08 17:42:00,72.0,33.2,29.80,WNW,288,13.0,22.0,24,0.00,,,0.00,489,WeatherCatV1.15B25,2013-07-09 00:42:00,
2013-07-08 17:47:00,72.0,34.2,29.81,WSW,249,13.0,19.0,25,0.00,,,0.00,471,WeatherCatV1.15B25,2013-07-09 00:47:00,
2013-07-08 17:52:00,72.1,34.3,29.81,NW,324,13.0,21.0,25,0.00,,,0.00,459,WeatherCatV1.15B25,2013-07-09 00:52:00,
2013-07-08 17:58:00,72.3,34.5,29.81,WNW,288,10.0,14.0,25,0.00,,,0.00,436,WeatherCatV1.15B25,2013-07-09 00:58:00,
2013-07-08 18:03:00,72.3,34.5,29.82,WNW,283,10.0,15.0,25,0.00,,,0.00,420,WeatherCatV1.15B25,2013-07-09 01:03:00,
2013-07-08 18:08:00,72.3,33.5,29.82,WNW,293,11.0,23.0,24,0.00,,,0.00,403,WeatherCatV1.15B25,2013-07-09 01:08:00,
2013-07-08 18:13:00,72.3,34.5,29.82,WSW,248,5.0,11.0,25,0.00,,,0.00,390,WeatherCatV1.15B25,2013-07-09 01:13:00,
2013-07-08 18:18:00,72.1,34.3,29.80,WSW,252,19.0,22.0,25,0.00,,,0.00,374,WeatherCatV1.15B25,2013-07-09 01:18:00,
2013-07-08 18:23:00,71.8,32.0,29.80,WNW,283,13.0,17.0,23,0.00,,,0.00,357,WeatherCatV1.15B25,2013-07-09 01:23:00,
2013-07-08 18:28:00,71.5,34.8,29.80,WSW,243,8.0,19.0,26,0.00,,,0.00,338,WeatherCatV1.15B25,2013-07-09 01:28:00,
2013-07-08 18:33:00,71.3,32.6,29.80,West,262,14.0,18.0,24,0.00,,,0.00,323,WeatherCatV1.15B25,2013-07-09 01:33:00,
2013-07-08 18:38:00,71.1,31.4,29.80,West,278,9.0,16.0,23,0.00,,,0.00,304,WeatherCatV1.15B25,2013-07-09 01:38:00,
2013-07-08 18:43:00,71.1,31.4,29.80,WSW,253,4.0,14.0,23,0.00,,,0.00,288,WeatherCatV1.15B25,2013-07-09 01:43:00,
2013-07-08 18:48:00,71.1,32.5,29.82,WSW,244,3.0,17.0,24,0.00,,,0.00,274,WeatherCatV1.15B25,2013-07-09 01:48:00,
2013-07-08 18:53:00,71.1,31.4,29.82,WNW,293,11.0,14.0,23,0.00,,,0.00,257,WeatherCatV1.15B25,2013-07-09 01:53:00,
2013-07-08 18:59:00,70.9,31.2,29.82,WNW,293,9.0,14.0,23,0.00,,,0.00,237,WeatherCatV1.15B25,2013-07-09 01:59:00,
2013-07-08 19:05:00,70.6,31.0,29.82,WSW,247,5.0,18.0,23,0.00,,,0.00,218,WeatherCatV1.15B25,2013-07-09 02:05:00,
2013-07-08 19:10:00,70.4,30.8,29.82,WNW,297,14.0,16.0,23,0.00,,,0.00,200,WeatherCatV1.15B25,2013-07-09 02:10:00,
2013-07-08 19:16:00,70.3,30.7,29.81,SW,230,7.0,15.0,23,0.00,,,0.00,181,WeatherCatV1.15B25,2013-07-09 02:16:00,
2013-07-08 19:22:00,70.3,30.7,29.81,WNW,297,9.0,12.0,23,0.00,,,0.00,163,WeatherCatV1.15B25,2013-07-09 02:22:00,
2013-07-08 19:29:00,69.9,30.4,29.81,WNW,297,9.0,16.0,23,0.00,,,0.00,142,WeatherCatV1.15B25,2013-07-09 02:29:00,
2013-07-08 19:34:00,69.6,30.2,29.81,WNW,288,7.0,16.0,23,0.00,,,0.00,128,WeatherCatV1.15B25,2013-07-09 02:34:00,
2013-07-08 19:40:00,69.3,29.9,29.81,West,275,5.0,15.0,23,0.00,,,0.00,111,WeatherCatV1.15B25,2013-07-09 02:40:00,
2013-07-08 19:46:00,68.6,29.3,29.82,WNW,298,16.0,16.0,23,0.00,,,0.00,49,WeatherCatV1.15B25,2013-07-09 02:46:00,
2013-07-08 19:51:00,68.3,29.1,29.82,NW,312,10.0,14.0,23,0.00,,,0.00,26,WeatherCatV1.15B25,2013-07-09 02:51:00,
2013-07-08 19:58:00,67.8,29.7,29.82,WNW,288,9.0,20.0,24,0.00,,,0.00,16,WeatherCatV1.15B25,2013-07-09 02:58:00,
2013-07-08 20:04:00,67.3,29.3,29.83,NW,316,15.0,15.0,24,0.00,,,0.00,23,WeatherCatV1.15B25,2013-07-09 03:04:00,
2013-07-08 20:10:00,66.8,28.8,29.83,WNW,288,9.0,15.0,24,0.00,,,0.00,30,WeatherCatV1.15B25,2013-07-09 03:10:00,
2013-07-08 20:16:00,66.4,28.5,29.81,NW,311,10.0,13.0,24,0.00,,,0.00,19,WeatherCatV1.15B25,2013-07-09 03:16:00,
2013-07-08 20:23:00,66.0,29.2,29.81,West,276,11.0,18.0,25,0.00,,,0.00,7,WeatherCatV1.15B25,2013-07-09 03:23:00,
2013-07-08 20:28:00,65.5,28.7,29.81,WNW,293,16.0,17.0,25,0.00,,,0.00,0,WeatherCatV1.15B25,2013-07-09 03:28:00,
2013-07-08 20:34:00,65.2,28.5,29.81,NW,316,13.0,16.0,25,0.00,,,0.00,0,WeatherCatV1.15B25,2013-07-09 03:34:00,
2013-07-08 20:40:00,64.8,29.1,29.81,NW,309,9.0,19.0,26,0.00,,,0.00,0,WeatherCatV1.15B25,2013-07-09 03:40:00,
2013-07-08 20:45:00,64.7,29.0,29.83,WNW,293,10.0,16.0,26,0.00,,,0.00,0,WeatherCatV1.15B25,2013-07-09 03:45:00,
2013-07-08 20:51:00,64.3,28.7,29.83,NW,307,17.0,22.0,26,0.00,,,0.00,0,WeatherCatV1.15B25,2013-07-09 03:51:00,
2013-07-08 20:56:00,64.2,28.6,29.83,NW,305,18.0,19.0,26,0.00,,,0.00,0,WeatherCatV1.15B25,2013-07-09 03:56:00,
2013-07-08 21:01:00,64.0,28.4,29.83,WNW,297,14.0,18.0,26,0.00,,,0.00,0,WeatherCatV1.15B25,2013-07-09 04:01:00,
2013-07-08 21:03:00,63.9,28.3,29.83,WNW,299,12.0,19.0,26,0.00,,,0.00,0,WeatherCatV1.15B25,2013-07-09 04:03:00,
2013-07-08 21:05:00,63.7,27.2,29.83,WNW,297,14.0,19.0,25,0.00,,,0.00,0,WeatherCatV1.15B25,2013-07-09 04:05:00,
2013-07-08 21:06:00,63.7,28.2,29.83,WNW,288,9.0,15.0,26,0.00,,,0.00,0,WeatherCatV1.15B25,2013-07-09 04:06:00,
2013-07-08 21:11:00,63.5,28.0,29.83,WNW,288,9.0,15.0,26,0.00,,,0.00,0,WeatherCatV1.15B25,2013-07-09 04:11:00,
2013-07-08 21:13:00,63.4,27.9,29.83,WNW,293,12.0,19.0,26,0.00,,,0.00,0,WeatherCatV1.15B25,2013-07-09 04:13:00,
2013-07-08 21:18:00,63.2,28.7,29.86,WNW,301,11.0,17.0,27,0.00,,,0.00,0,WeatherCatV1.15B25,2013-07-09 04:18:00,
2013-07-08 21:23:00,63.2,28.7,29.86,NW,307,9.0,19.0,27,0.00,,,0.00,0,WeatherCatV1.15B25,2013-07-09 04:23:00,
2013-07-08 21:28:00,63.1,28.6,29.86,WNW,293,14.0,16.0,27,0.00,,,0.00,0,WeatherCatV1.15B25,2013-07-09 04:28:00,
2013-07-08 21:33:00,62.9,28.4,29.86,WNW,302,6.0,15.0,27,0.00,,,0.00,0,WeatherCatV1.15B25,2013-07-09 04:33:00,
2013-07-08 21:38:00,62.9,28.4,29.86,WNW,299,6.0,12.0,27,0.00,,,0.00,0,WeatherCatV1.15B25,2013-07-09 04:38:00,
2013-07-08 21:43:00,62.7,28.2,29.86,NW,304,7.0,14.0,27,0.00,,,0.00,0,WeatherCatV1.15B25,2013-07-09 04:43:00,
2013-07-08 21:48:00,62.7,28.2,29.86,NW,315,10.0,14.0,27,0.00,,,0.00,0,WeatherCatV1.15B25,2013-07-09 04:48:00,
2013-07-08 21:53:00,62.7,27.3,29.86,WNW,299,8.0,17.0,26,0.00,,,0.00,0,WeatherCatV1.15B25,2013-07-09 04:53:00,
2013-07-08 21:58:00,62.6,28.2,29.86,NW,312,12.0,14.0,27,0.00,,,0.00,0,WeatherCatV1.15B25,2013-07-09 04:58:00,
2013-07-08 22:03:00,62.6,28.2,29.86,WNW,301,15.0,15.0,27,0.00,,,0.00,0,WeatherCatV1.15B25,2013-07-09 05:03:00,
2013-07-08 22:08:00,62.4,28.0,29.86,WNW,301,10.0,15.0,27,0.00,,,0.00,0,WeatherCatV1.15B25,2013-07-09 05:08:00,
2013-07-08 22:13:00,62.3,27.9,29.86,NW,314,13.0,13.0,27,0.00,,,0.00,0,WeatherCatV1.15B25,2013-07-09 05:13:00,
2013-07-08 22:18:00,62.1,27.7,29.86,WNW,283,4.0,14.0,27,0.00,,,0.00,0,WeatherCatV1.15B25,2013-07-09 05:18:00,
2013-07-08 22:23:00,62.0,27.6,29.86,NW,309,6.0,13.0,27,0.00,,,0.00,0,WeatherCatV1.15B25,2013-07-09 05:23:00,
2013-07-08 22:28:00,62.0,30.2,29.86,WNW,297,10.0,16.0,30,0.00,,,0.00,0,WeatherCatV1.15B25,2013-07-09 05:28:00,
2013-07-08 22:33:00,62.0,27.6,29.87,NW,306,14.0,16.0,27,0.00,,,0.00,0,WeatherCatV1.15B25,2013-07-09 05:33:00,
2013-07-08 22:38:00,61.8,27.5,29.87,NW,305,6.0,12.0,27,0.00,,,0.00,0,WeatherCatV1.15B25,2013-07-09 05:38:00,
2013-07-08 22:43:00,61.6,27.3,29.87,NNW,345,2.0,10.0,27,0.00,,,0.00,0,WeatherCatV1.15B25,2013-07-09 05:43:00,
2013-07-08 22:48:00,61.6,26.4,29.88,NW,312,4.0,14.0,26,0.00,,,0.00,0,WeatherCatV1.15B25,2013-07-09 05:48:00,
2013-07-08 22:53:00,61.6,26.4,29.88,NW,319,10.0,11.0,26,0.00,,,0.00,0,WeatherCatV1.15B25,2013-07-09 05:53:00,
2013-07-08 22:58:00,61.6,26.4,29.88,NW,306,10.0,10.0,26,0.00,,,0.00,0,WeatherCatV1.15B25,2013-07-09 05:58:00,
2013-07-08 23:03:00,61.6,26.4,29.88,NW,308,4.0,10.0,26,0.00,,,0.00,0,WeatherCatV1.15B25,2013-07-09 06:03:00,
2013-07-08 23:08:00,61.3,25.2,29.88,NNW,334,3.0,7.0,25,0.00,,,0.00,0,WeatherCatV1.15B25,2013-07-09 06:08:00,
2013-07-08 23:13:00,61.2,26.0,29.88,WNW,288,4.0,6.0,26,0.00,,,0.00,0,WeatherCatV1.15B25,2013-07-09 06:13:00,
2013-07-08 23:18:00,61.0,24.9,29.85,West,270,6.0,12.0,25,0.00,,,0.00,0,WeatherCatV1.15B25,2013-07-09 06:18:00,
2013-07-08 23:23:00,61.0,24.9,29.85,West,277,5.0,11.0,25,0.00,,,0.00,0,WeatherCatV1.15B25,2013-07-09 06:23:00,
2013-07-08 23:28:00,61.2,24.1,29.85,NNW,339,2.0,11.0,24,0.00,,,0.00,0,WeatherCatV1.15B25,2013-07-09 06:28:00,
2013-07-08 23:33:00,61.2,24.1,29.85,WNW,288,7.0,13.0,24,0.00,,,0.00,0,WeatherCatV1.15B25,2013-07-09 06:33:00,
2013-07-08 23:38:00,61.3,23.2,29.85,WNW,303,6.0,12.0,23,0.00,,,0.00,0,WeatherCatV1.15B25,2013-07-09 06:38:00,
2013-07-08 23:43:00,61.5,23.4,29.85,NW,310,7.0,15.0,23,0.00,,,0.00,0,WeatherCatV1.15B25,2013-07-09 06:43:00,
2013-07-08 23:48:00,61.8,22.6,29.85,WNW,293,15.0,16.0,22,0.00,,,0.00,0,WeatherCatV1.15B25,2013-07-09 06:48:00,
2013-07-08 23:53:00,62.0,22.7,29.85,WNW,293,6.0,12.0,22,0.00,,,0.00,0,WeatherCatV1.15B25,2013-07-09 06:53:00,
2013-07-08 23:58:00,61.8,22.6,29.85,NW,311,11.0,12.0,22,0.00,,,0.00,0,WeatherCatV1.15B25,2013-07-09 06:58:00,